Time;durP1;ratioP1;P1;durP2;ratioP2;P2;SDS_P1;SDS_P2;PMS_P1;PMS_P2;Temp;Humidity;BMP_temperature;BMP_pressure;BME280_temperature;BME280_humidity;BME280_pressure;Samples;Min_cycle;Max_cycle;Signal;HPM_P1;HPM_P2
2023/02/13 00:00:31;;;;;;;8.18;5.10;;;9.80;87.00;;;;;;6217002;23;20008;-78
2023/02/13 00:02:57;;;;;;;7.43;4.82;;;9.80;87.00;;;;;;6219083;23;20000;-78
2023/02/13 00:05:22;;;;;;;7.10;4.55;;;9.80;87.00;;;;;;6215798;23;20005;-78
2023/02/13 00:07:48;;;;;;;7.20;4.63;;;9.80;87.00;;;;;;6213193;23;20121;-78
2023/02/13 00:10:13;;;;;;;7.57;4.88;;;9.80;87.00;;;;;;6214261;23;20431;-77
2023/02/13 00:12:39;;;;;;;6.82;4.55;;;9.80;87.00;;;;;;6213041;23;20043;-77
2023/02/13 00:15:06;;;;;;;7.55;5.10;;;9.80;87.00;;;;;;6212939;23;20324;-77
2023/02/13 00:17:32;;;;;;;8.57;4.78;;;9.80;87.00;;;;;;6214315;23;20087;-77
2023/02/13 00:19:57;;;;;;;7.30;4.72;;;9.80;87.00;;;;;;6215326;23;20446;-78
2023/02/13 00:22:23;;;;;;;7.22;4.63;;;9.80;87.00;;;;;;6214314;23;20004;-78
2023/02/13 00:24:49;;;;;;;7.90;4.93;;;9.80;86.90;;;;;;6216531;23;20001;-78
2023/02/13 00:27:14;;;;;;;7.28;4.72;;;9.80;86.90;;;;;;6217062;23;20485;-77
2023/02/13 00:29:40;;;;;;;7.03;4.53;;;9.80;87.00;;;;;;6216296;23;20309;-77
2023/02/13 00:32:05;;;;;;;7.38;4.78;;;9.80;87.00;;;;;;6216762;23;20104;-78
2023/02/13 00:34:31;;;;;;;7.10;4.60;;;9.80;87.00;;;;;;6218056;23;20731;-78
2023/02/13 00:36:56;;;;;;;7.10;4.55;;;9.80;87.00;;;;;;6217435;23;20502;-77
2023/02/13 00:39:22;;;;;;;7.22;4.65;;;9.80;87.00;;;;;;6214256;23;20015;-77
2023/02/13 00:41:47;;;;;;;7.63;4.68;;;9.80;86.90;;;;;;6212879;23;20335;-78
2023/02/13 00:44:13;;;;;;;7.45;4.75;;;9.80;86.90;;;;;;6214419;23;20015;-78
2023/02/13 00:46:38;;;;;;;8.60;5.20;;;9.80;87.50;;;;;;6211822;23;20091;-78
2023/02/13 00:49:04;;;;;;;7.68;4.78;;;9.80;87.00;;;;;;6211367;23;20009;-77
2023/02/13 00:51:30;;;;;;;6.85;4.50;;;9.80;87.00;;;;;;6211358;23;20005;-78
2023/02/13 00:53:56;;;;;;;8.30;4.72;;;9.80;87.00;;;;;;6209417;23;20012;-78
2023/02/13 00:56:22;;;;;;;7.55;4.95;;;9.80;87.00;;;;;;6211052;23;20015;-77
2023/02/13 00:58:47;;;;;;;7.90;4.90;;;9.80;87.00;;;;;;6211174;23;20008;-77
2023/02/13 01:01:13;;;;;;;7.25;4.45;;;9.80;87.00;;;;;;6212775;23;19997;-78
2023/02/13 01:03:38;;;;;;;7.25;4.55;;;9.80;87.00;;;;;;6211639;23;20009;-78
2023/02/13 01:06:04;;;;;;;7.82;4.72;;;9.80;87.00;;;;;;6214210;23;20139;-78
2023/02/13 01:08:30;;;;;;;8.05;5.20;;;9.80;87.00;;;;;;6213778;23;20001;-77
2023/02/13 01:10:56;;;;;;;6.93;4.20;;;9.80;86.90;;;;;;6213503;23;20015;-76
2023/02/13 01:13:22;;;;;;;7.63;4.57;;;9.80;87.00;;;;;;6213673;23;20009;-77
2023/02/13 01:15:48;;;;;;;7.93;4.40;;;9.80;86.90;;;;;;6214638;23;20005;-77
2023/02/13 01:18:15;;;;;;;12.18;5.15;;;9.80;87.00;;;;;;6214482;23;20343;-78
2023/02/13 01:20:45;;;;;;;7.10;4.30;;;9.80;86.90;;;;;;6215671;23;20013;-78
2023/02/13 01:23:11;;;;;;;7.43;4.60;;;9.80;86.90;;;;;;6214716;23;20001;-77
2023/02/13 01:25:41;;;;;;;7.90;4.93;;;9.80;86.90;;;;;;6214494;23;20000;-77
2023/02/13 01:28:07;;;;;;;6.78;4.45;;;9.80;87.00;;;;;;6214779;23;20055;-77
2023/02/13 01:30:33;;;;;;;7.07;4.63;;;9.80;87.00;;;;;;6217651;23;20082;-78
2023/02/13 01:32:58;;;;;;;7.85;4.78;;;9.80;87.00;;;;;;6218060;23;20428;-79
2023/02/13 01:35:24;;;;;;;7.35;4.65;;;9.80;87.00;;;;;;6214773;23;20008;-77
2023/02/13 01:37:49;;;;;;;7.75;4.85;;;9.80;87.00;;;;;;6216072;23;20011;-77
2023/02/13 01:40:16;;;;;;;8.20;4.88;;;9.80;87.00;;;;;;6216626;23;20087;-77
2023/02/13 01:42:42;;;;;;;8.35;4.85;;;9.80;87.00;;;;;;6246861;23;20016;-78
2023/02/13 01:45:25;;;;;;;6.75;4.25;;;9.80;87.00;;;;;;6247534;23;20075;-78
2023/02/13 01:48:04;;;;;;;6.97;4.35;;;9.80;87.00;;;;;;6244678;23;20350;-78
2023/02/13 01:50:38;;;;;;;7.65;4.60;;;9.80;87.00;;;;;;6217755;23;20008;-78
2023/02/13 01:53:11;;;;;;;7.00;4.43;;;9.80;87.00;;;;;;6244653;23;20457;-79
2023/02/13 01:55:51;;;;;;;7.60;4.80;;;9.80;87.00;;;;;;6217502;23;20008;-78
2023/02/13 01:58:21;;;;;;;8.80;4.95;;;9.80;87.00;;;;;;6244374;23;20014;-78
2023/02/13 02:00:49;;;;;;;7.43;4.40;;;9.80;87.00;;;;;;6244688;23;20008;-78
2023/02/13 02:03:30;;;;;;;7.95;4.60;;;9.80;87.00;;;;;;6218075;23;20004;-78
2023/02/13 02:05:58;;;;;;;7.53;4.60;;;9.80;87.00;;;;;;6244114;23;20393;-77
2023/02/13 02:08:24;;;;;;;6.95;4.22;;;9.80;87.00;;;;;;6219002;23;20005;-78
2023/02/13 02:10:50;;;;;;;7.35;4.97;;;9.80;87.50;;;;;;6219258;23;20574;-77
2023/02/13 02:13:18;;;;;;;7.88;5.05;;;9.80;87.00;;;;;;6219444;23;20061;-78
2023/02/13 02:15:45;;;;;;;7.38;4.45;;;9.80;87.00;;;;;;6219025;23;20012;-78
2023/02/13 02:18:21;;;;;;;7.28;4.35;;;9.80;87.00;;;;;;6246212;23;20007;-78
2023/02/13 02:20:55;;;;;;;6.78;4.30;;;9.80;87.00;;;;;;6219768;23;20031;-78
2023/02/13 02:23:52;;;;;;;7.93;4.68;;;9.80;87.00;;;;;;6219284;23;20111;-77
2023/02/13 02:26:50;;;;;;;7.97;4.20;;;9.80;87.00;;;;;;6245933;23;20343;-78
2023/02/13 02:29:37;;;;;;;8.23;4.82;;;9.80;87.00;;;;;;6250031;23;20071;-79
2023/02/13 02:32:18;;;;;;;7.03;4.32;;;9.80;87.00;;;;;;6223330;23;20008;-78
2023/02/13 02:35:03;;;;;;;6.95;4.22;;;9.80;86.90;;;;;;6220780;23;20012;-78
2023/02/13 02:37:40;;;;;;;7.65;4.55;;;9.80;87.00;;;;;;6246496;23;20008;-78
2023/02/13 02:40:26;;;;;;;7.90;4.60;;;9.80;87.00;;;;;;6245688;23;20083;-78
2023/02/13 02:43:01;;;;;;;7.00;4.30;;;9.80;87.00;;;;;;6219237;23;20015;-78
2023/02/13 02:45:44;;;;;;;7.82;4.72;;;9.80;87.00;;;;;;6219026;23;20030;-78
2023/02/13 02:51:05;;;;;;;7.55;4.25;;;9.80;87.00;;;;;;6245896;23;20031;-77
2023/02/13 02:53:47;;;;;;;7.70;4.90;;;9.80;87.00;;;;;;6218955;23;20083;-77
2023/02/13 02:56:25;;;;;;;6.70;4.30;;;9.80;87.00;;;;;;6244035;23;20079;-78
2023/02/13 03:07:21;;;;;;;6.88;4.30;;;9.80;87.00;;;;;;6243776;23;20454;-78
2023/02/13 03:15:31;;;;;;;7.22;4.28;;;9.80;87.00;;;;;;6241091;23;20015;-78
2023/02/13 03:24:03;;;;;;;7.72;4.47;;;9.80;87.00;;;;;;6231261;23;20312;-78
2023/02/13 03:26:49;;;;;;;6.93;4.30;;;9.80;87.00;;;;;;6219042;23;20048;-79
2023/02/13 03:33:03;;;;;;;7.05;4.28;;;9.80;87.00;;;;;;6247126;23;20047;-79
2023/02/13 03:38:46;;;;;;;7.50;4.60;;;9.80;86.90;;;;;;6246110;23;20342;-78
2023/02/13 03:41:19;;;;;;;7.43;4.18;;;9.80;86.90;;;;;;6231366;23;20054;-78
2023/02/13 03:44:08;;;;;;;7.47;4.22;;;9.80;87.00;;;;;;6246008;23;20000;-78
2023/02/13 03:46:37;;;;;;;8.00;4.80;;;9.80;87.00;;;;;;6244873;23;20000;-77
2023/02/13 03:52:01;;;;;;;7.00;4.28;;;9.80;86.90;;;;;;6245152;23;20346;-77
2023/02/13 04:00:20;;;;;;;7.78;4.72;;;9.80;87.00;;;;;;6245090;23;20449;-77
2023/02/13 04:03:18;;;;;;;6.90;4.18;;;9.80;87.00;;;;;;6218600;23;20032;-78
2023/02/13 04:05:48;;;;;;;7.82;4.72;;;9.80;86.90;;;;;;6245742;23;20411;-78
2023/02/13 04:08:14;;;;;;;7.82;4.57;;;9.80;87.00;;;;;;6219143;23;20000;-77
2023/02/13 04:11:02;;;;;;;7.38;4.35;;;9.80;87.00;;;;;;6219568;23;20035;-78
2023/02/13 04:13:33;;;;;;;8.23;4.57;;;9.80;86.90;;;;;;6245747;23;20004;-83
2023/02/13 04:16:30;;;;;;;7.43;4.57;;;9.80;86.90;;;;;;6215521;23;20008;-81
2023/02/13 04:18:56;;;;;;;7.88;4.53;;;9.80;86.90;;;;;;6194082;23;20062;-78
2023/02/13 04:21:22;;;;;;;6.95;4.13;;;9.80;87.00;;;;;;6209751;23;20036;-80
2023/02/13 04:23:48;;;;;;;7.35;4.68;;;9.80;86.90;;;;;;6237247;23;20398;-81
2023/02/13 04:26:18;;;;;;;6.72;4.10;;;9.80;86.90;;;;;;6207452;23;20031;-81
2023/02/13 04:28:43;;;;;;;7.47;4.75;;;9.80;87.00;;;;;;6238142;23;20344;-80
2023/02/13 04:31:09;;;;;;;6.95;4.20;;;9.80;86.90;;;;;;6208857;23;20011;-75
2023/02/13 04:33:34;;;;;;;7.80;4.70;;;9.80;86.90;;;;;;6233888;23;20015;-75
2023/02/13 04:36:00;;;;;;;7.50;4.60;;;9.80;86.90;;;;;;6233379;23;20019;-75
2023/02/13 04:38:25;;;;;;;7.82;4.72;;;9.80;87.00;;;;;;6232939;23;20329;-75
2023/02/13 04:40:51;;;;;;;7.50;4.60;;;9.80;87.00;;;;;;6202250;23;20023;-74
2023/02/13 04:43:16;;;;;;;8.00;4.60;;;9.80;86.90;;;;;;6205599;23;20055;-73
2023/02/13 04:45:42;;;;;;;7.25;4.50;;;9.80;87.00;;;;;;6208127;23;20514;-78
2023/02/13 04:48:07;;;;;;;7.57;4.65;;;9.80;87.00;;;;;;6210701;23;20009;-80
2023/02/13 04:50:33;;;;;;;7.95;4.75;;;9.70;86.90;;;;;;6209943;23;20016;-79
2023/02/13 04:52:59;;;;;;;8.02;4.85;;;9.80;86.90;;;;;;6210225;23;20008;-78
2023/02/13 04:55:26;;;;;;;7.70;4.70;;;9.80;86.90;;;;;;6211289;23;20012;-77
2023/02/13 04:57:54;;;;;;;7.65;4.88;;;9.90;87.00;;;;;;6211303;23;20024;-76
2023/02/13 05:00:23;;;;;;;7.75;4.47;;;9.90;87.00;;;;;;6210612;23;20015;-78
2023/02/13 05:02:49;;;;;;;7.25;4.50;;;9.80;87.00;;;;;;6213749;23;19996;-78
2023/02/13 05:05:15;;;;;;;7.93;4.50;;;9.80;87.00;;;;;;6211521;23;20001;-77
2023/02/13 05:07:41;;;;;;;8.20;4.90;;;9.80;86.90;;;;;;6213918;23;20009;-81
2023/02/13 05:10:08;;;;;;;7.35;4.50;;;9.80;87.00;;;;;;6213997;23;20444;-79
2023/02/13 05:12:34;;;;;;;8.13;5.00;;;9.80;87.00;;;;;;6214174;23;20125;-78
2023/02/13 05:14:59;;;;;;;7.97;4.90;;;9.80;86.90;;;;;;6208120;23;20091;-76
2023/02/13 05:17:25;;;;;;;7.32;4.40;;;9.80;86.90;;;;;;6207543;23;20016;-77
2023/02/13 05:19:50;;;;;;;8.38;4.90;;;9.70;86.90;;;;;;6209357;23;20452;-78
2023/02/13 05:25:00;;;;;;;7.72;4.13;;;9.80;87.00;;;;;;6209148;23;20054;-76
2023/02/13 05:27:25;;;;;;;8.32;4.82;;;9.80;86.90;;;;;;6207592;23;20004;-76
2023/02/13 05:29:51;;;;;;;7.97;4.68;;;9.80;86.90;;;;;;6208952;23;20012;-78
2023/02/13 05:32:16;;;;;;;8.30;4.60;;;9.80;86.90;;;;;;6207852;23;20019;-77
2023/02/13 05:34:42;;;;;;;7.93;5.25;;;9.80;86.90;;;;;;6207469;23;20005;-78
2023/02/13 05:37:07;;;;;;;8.02;4.80;;;9.80;86.90;;;;;;6208323;23;20008;-77
2023/02/13 05:39:33;;;;;;;8.80;5.30;;;9.80;86.90;;;;;;6209230;23;20088;-77
2023/02/13 05:41:58;;;;;;;7.00;4.38;;;9.80;87.00;;;;;;6209094;23;20030;-77
2023/02/13 05:44:24;;;;;;;7.57;4.65;;;9.80;86.90;;;;;;6210461;23;20104;-77
2023/02/13 05:46:51;;;;;;;7.40;4.60;;;9.90;87.00;;;;;;6208247;23;20027;-77
2023/02/13 05:49:17;;;;;;;8.77;5.00;;;9.80;86.90;;;;;;6208388;23;20458;-77
2023/02/13 05:51:45;;;;;;;8.05;5.00;;;9.80;86.90;;;;;;6210109;23;20004;-74
2023/02/13 05:54:10;;;;;;;7.57;4.80;;;9.80;86.90;;;;;;6210273;23;20005;-78
2023/02/13 05:56:36;;;;;;;8.68;5.25;;;9.80;87.00;;;;;;6209470;23;20075;-76
2023/02/13 05:59:01;;;;;;;7.78;4.88;;;9.80;86.90;;;;;;6209189;23;20012;-77
2023/02/13 06:01:27;;;;;;;8.32;4.90;;;9.80;86.90;;;;;;6209169;23;20432;-75
2023/02/13 06:03:52;;;;;;;8.65;5.22;;;9.80;86.90;;;;;;6207194;23;20005;-76
2023/02/13 06:06:18;;;;;;;7.82;4.70;;;9.80;86.90;;;;;;6209045;23;20427;-76
2023/02/13 06:08:44;;;;;;;8.52;5.00;;;9.80;86.90;;;;;;6208947;23;20079;-76
2023/02/13 06:11:09;;;;;;;7.85;4.85;;;9.80;86.90;;;;;;6209500;23;20718;-77
2023/02/13 06:13:35;;;;;;;7.57;4.70;;;9.80;86.90;;;;;;6207101;23;20005;-76
2023/02/13 06:16:00;;;;;;;7.90;4.95;;;9.80;86.90;;;;;;6207213;23;20016;-78
2023/02/13 06:18:26;;;;;;;8.65;5.15;;;9.80;86.90;;;;;;6209016;23;20369;-75
2023/02/13 06:20:51;;;;;;;9.20;5.32;;;9.80;86.90;;;;;;6208760;23;20008;-76
2023/02/13 06:23:17;;;;;;;8.15;4.78;;;9.80;86.90;;;;;;6207869;23;20001;-77
2023/02/13 06:25:42;;;;;;;9.70;5.10;;;9.80;86.90;;;;;;6207495;23;20036;-77
2023/02/13 06:28:08;;;;;;;8.85;5.25;;;9.90;87.00;;;;;;6210030;23;20172;-77
2023/02/13 06:30:33;;;;;;;10.05;6.30;;;9.80;86.90;;;;;;6214158;23;20008;-80
2023/02/13 06:32:59;;;;;;;10.90;5.90;;;9.90;87.00;;;;;;6217417;23;20000;-79
2023/02/13 06:35:25;;;;;;;8.82;5.88;;;9.90;87.00;;;;;;6216670;23;20451;-79
2023/02/13 06:37:51;;;;;;;9.55;5.47;;;9.80;86.90;;;;;;6220565;23;20000;-79
2023/02/13 06:40:17;;;;;;;7.97;4.88;;;9.80;86.90;;;;;;6221346;23;20051;-79
2023/02/13 06:42:44;;;;;;;8.35;5.43;;;9.80;86.90;;;;;;6223380;23;20031;-78
2023/02/13 06:45:09;;;;;;;8.15;5.18;;;9.80;86.90;;;;;;6218347;23;20514;-77
2023/02/13 06:47:35;;;;;;;9.80;5.25;;;9.80;86.90;;;;;;6218893;23;20028;-79
2023/02/13 06:50:00;;;;;;;8.85;5.32;;;9.80;86.90;;;;;;6245010;23;20008;-79
2023/02/13 06:52:26;;;;;;;9.27;5.63;;;9.80;86.90;;;;;;6244260;23;20004;-78
2023/02/13 06:54:52;;;;;;;9.65;5.80;;;9.80;86.90;;;;;;6216924;23;20477;-79
2023/02/13 06:57:17;;;;;;;7.70;5.13;;;9.80;86.90;;;;;;6243291;23;20008;-79
2023/02/13 06:59:43;;;;;;;8.48;5.03;;;9.80;86.90;;;;;;6243563;23;20069;-78
2023/02/13 07:02:12;;;;;;;9.18;5.10;;;9.80;86.90;;;;;;6243426;23;20000;-79
2023/02/13 07:04:37;;;;;;;9.13;5.75;;;9.90;87.00;;;;;;6243929;23;20304;-79
2023/02/13 07:07:03;;;;;;;8.35;5.13;;;9.80;86.90;;;;;;6219735;23;20087;-78
2023/02/13 07:09:30;;;;;;;8.88;5.47;;;9.80;87.40;;;;;;6245453;23;20008;-78
2023/02/13 07:11:55;;;;;;;8.48;5.13;;;9.80;86.90;;;;;;6247687;23;20004;-79
2023/02/13 07:14:21;;;;;;;8.48;5.55;;;9.80;86.90;;;;;;6220804;23;20054;-79
2023/02/13 07:16:46;;;;;;;8.32;5.20;;;9.80;86.90;;;;;;6248218;23;20000;-79
2023/02/13 07:19:12;;;;;;;8.93;5.60;;;9.80;86.80;;;;;;6244946;23;20014;-79
2023/02/13 07:21:37;;;;;;;8.73;5.60;;;9.80;86.90;;;;;;6218166;23;20015;-79
2023/02/13 07:24:04;;;;;;;8.13;5.50;;;9.80;86.80;;;;;;6219047;23;20248;-79
2023/02/13 07:26:29;;;;;;;8.48;5.38;;;9.80;86.80;;;;;;6244504;23;20031;-78
2023/02/13 07:28:55;;;;;;;7.97;4.95;;;9.80;86.80;;;;;;6217788;23;20350;-79
2023/02/13 07:31:20;;;;;;;8.18;5.22;;;9.80;86.80;;;;;;6244671;23;20050;-79
2023/02/13 07:33:49;;;;;;;9.25;5.65;;;9.80;86.80;;;;;;6248293;23;20040;-79
2023/02/13 07:36:14;;;;;;;8.57;5.75;;;9.80;86.80;;;;;;6245888;23;19996;-79
2023/02/13 07:38:40;;;;;;;8.95;5.63;;;9.80;86.80;;;;;;6245987;23;20273;-79
2023/02/13 07:41:05;;;;;;;8.70;5.75;;;9.80;86.80;;;;;;6246453;23;20004;-78
2023/02/13 07:43:31;;;;;;;8.75;5.25;;;9.80;86.80;;;;;;6218451;23;20004;-78
2023/02/13 07:46:02;;;;;;;8.52;5.35;;;9.80;86.80;;;;;;6217562;23;20000;-79
2023/02/13 07:48:28;;;;;;;9.25;5.45;;;9.90;86.80;;;;;;6217362;23;20045;-78
2023/02/13 07:51:03;;;;;;;9.10;5.50;;;9.90;86.90;;;;;;6217729;23;20470;-78
2023/02/13 07:53:29;;;;;;;8.95;5.38;;;9.80;86.80;;;;;;6244206;23;20004;-79
2023/02/13 07:55:55;;;;;;;8.82;5.57;;;9.80;86.80;;;;;;6217774;23;20015;-79
2023/02/13 07:58:20;;;;;;;8.35;5.45;;;9.80;86.80;;;;;;6247789;23;20083;-79
2023/02/13 08:00:46;;;;;;;8.88;5.53;;;9.80;86.80;;;;;;6245336;23;20008;-79
2023/02/13 08:03:12;;;;;;;13.38;5.90;;;9.80;86.80;;;;;;6245453;23;20011;-79
2023/02/13 08:05:37;;;;;;;8.50;5.35;;;9.80;86.80;;;;;;6216451;23;20394;-77
2023/02/13 08:08:03;;;;;;;8.27;5.15;;;9.80;86.80;;;;;;6217983;23;20439;-79
2023/02/13 08:13:14;;;;;;;8.48;5.35;;;9.80;86.80;;;;;;6244105;23;20058;-79
2023/02/13 08:15:40;;;;;;;8.10;5.25;;;9.80;86.70;;;;;;6243732;23;20079;-78
2023/02/13 08:18:05;;;;;;;9.48;5.55;;;9.80;86.70;;;;;;6244075;23;20023;-80
2023/02/13 08:20:31;;;;;;;8.25;4.97;;;9.90;86.80;;;;;;6218367;23;20379;-79
2023/02/13 08:23:05;;;;;;;8.52;5.32;;;9.90;86.80;;;;;;6248464;23;20466;-79
2023/02/13 08:25:31;;;;;;;9.23;5.38;;;9.90;86.80;;;;;;6221297;23;20058;-79
2023/02/13 08:27:58;;;;;;;8.68;5.22;;;9.80;86.70;;;;;;6248037;23;20028;-79
2023/02/13 08:30:24;;;;;;;8.40;5.20;;;9.80;86.70;;;;;;6249175;23;20048;-79
2023/02/13 08:32:50;;;;;;;9.00;5.55;;;9.80;86.70;;;;;;6224767;23;20004;-79
2023/02/13 08:35:15;;;;;;;8.40;5.43;;;9.90;86.70;;;;;;6223051;23;20008;-80
2023/02/13 08:37:41;;;;;;;9.07;5.32;;;9.90;86.70;;;;;;6250894;23;20008;-79
2023/02/13 08:40:09;;;;;;;7.97;4.90;;;9.80;86.60;;;;;;6223727;23;20008;-79
2023/02/13 08:42:35;;;;;;;7.93;5.05;;;9.90;86.70;;;;;;6224008;23;20030;-78
2023/02/13 08:45:01;;;;;;;8.75;5.03;;;9.80;86.50;;;;;;6223470;23;20375;-79
2023/02/13 08:47:26;;;;;;;8.63;4.95;;;9.90;86.60;;;;;;6251003;23;20046;-78
2023/02/13 08:49:51;;;;;;;8.40;5.30;;;9.90;86.60;;;;;;6250175;23;20011;-77
2023/02/13 08:52:17;;;;;;;8.70;5.53;;;9.90;86.60;;;;;;6250056;23;20054;-79
2023/02/13 08:54:42;;;;;;;8.00;5.00;;;9.90;86.60;;;;;;6250097;23;20008;-79
2023/02/13 08:57:08;;;;;;;7.50;4.60;;;9.90;86.60;;;;;;6250292;23;20007;-79
2023/02/13 08:59:33;;;;;;;9.68;5.53;;;9.90;86.60;;;;;;6252375;23;20494;-79
2023/02/13 09:01:59;;;;;;;8.23;5.05;;;9.90;86.60;;;;;;6226225;23;20004;-80
2023/02/13 09:04:24;;;;;;;8.90;5.40;;;9.90;86.50;;;;;;6252240;23;20000;-78
2023/02/13 09:06:50;;;;;;;8.02;5.15;;;9.90;86.50;;;;;;6248875;23;20003;-79
2023/02/13 09:09:16;;;;;;;9.27;5.40;;;9.90;86.60;;;;;;6249979;23;20004;-80
2023/02/13 09:11:41;;;;;;;7.90;4.95;;;9.90;86.50;;;;;;6251874;23;20467;-79
2023/02/13 09:14:07;;;;;;;8.27;4.97;;;9.90;86.50;;;;;;6251540;23;20051;-79
2023/02/13 09:16:32;;;;;;;9.23;5.95;;;9.90;86.50;;;;;;6250600;23;20004;-79
2023/02/13 09:18:58;;;;;;;7.88;5.10;;;9.90;86.40;;;;;;6224266;23;20431;-79
2023/02/13 09:21:23;;;;;;;8.27;5.00;;;9.90;86.40;;;;;;6251617;23;20000;-78
2023/02/13 09:23:50;;;;;;;8.93;5.30;;;9.90;86.40;;;;;;6251071;23;20023;-79
2023/02/13 09:26:18;;;;;;;8.18;4.88;;;9.90;86.40;;;;;;6249756;23;20003;-79
2023/02/13 09:28:43;;;;;;;7.90;4.63;;;10.00;86.50;;;;;;6224239;23;20055;-78
2023/02/13 09:31:11;;;;;;;8.00;4.95;;;9.90;86.40;;;;;;6250800;23;20007;-79
2023/02/13 09:33:37;;;;;;;8.20;5.25;;;9.90;86.40;;;;;;6223290;23;20439;-79
2023/02/13 09:36:04;;;;;;;8.40;5.18;;;10.00;86.40;;;;;;6222883;23;20083;-79
2023/02/13 09:38:30;;;;;;;7.70;4.80;;;10.00;86.30;;;;;;6250570;23;20008;-79
2023/02/13 09:41:02;;;;;;;7.80;4.65;;;10.00;86.30;;;;;;6217696;23;20015;-79
2023/02/13 09:43:29;;;;;;;;;;;10.00;86.20;;;;;;6217030;23;20026;-79
2023/02/13 09:45:59;;;;;;;8.00;4.90;;;10.00;86.20;;;;;;6215961;23;20262;-79
2023/02/13 09:48:35;;;;;;;8.70;5.18;;;10.00;86.20;;;;;;6215822;23;20390;-79
2023/02/13 09:51:01;;;;;;;8.15;4.90;;;10.00;86.20;;;;;;6218086;23;20004;-79
2023/02/13 09:53:28;;;;;;;8.20;5.03;;;10.00;86.10;;;;;;6217584;23;20037;-79
2023/02/13 09:56:14;;;;;;;8.70;5.20;;;10.00;86.10;;;;;;6216196;23;20040;-79
2023/02/13 09:58:47;;;;;;;8.13;4.80;;;10.00;86.00;;;;;;6217278;23;20004;-79
2023/02/13 10:01:29;;;;;;;8.07;4.50;;;10.00;86.00;;;;;;6216985;23;20087;-79
2023/02/13 10:03:54;;;;;;;7.97;4.88;;;10.00;86.00;;;;;;6214667;23;20009;-79
2023/02/13 10:06:35;;;;;;;8.15;4.88;;;10.10;86.00;;;;;;6214984;23;20063;-79
2023/02/13 10:09:05;;;;;;;7.82;4.55;;;10.00;85.90;;;;;;6216738;23;19997;-78
2023/02/13 10:11:40;;;;;;;7.80;4.60;;;10.10;86.00;;;;;;6214626;23;20005;-79
2023/02/13 10:14:27;;;;;;;8.27;4.97;;;10.00;85.90;;;;;;6216549;23;20097;-79
2023/02/13 10:17:00;;;;;;;7.47;4.50;;;10.00;85.90;;;;;;6216142;23;20076;-78
2023/02/13 10:19:44;;;;;;;7.88;4.78;;;10.10;85.90;;;;;;6218371;23;20001;-79
2023/02/13 10:22:17;;;;;;;8.50;4.75;;;10.10;85.90;;;;;;6215031;23;20069;-79
2023/02/13 10:25:03;;;;;;;7.40;4.72;;;10.10;85.90;;;;;;6217495;23;20005;-79
2023/02/13 10:27:36;;;;;;;7.75;4.68;;;10.00;85.90;;;;;;6216033;23;20343;-78
2023/02/13 10:30:16;;;;;;;7.55;4.68;;;10.10;85.90;;;;;;6214951;23;20008;-79
2023/02/13 10:33:17;;;;;;;7.35;4.57;;;10.10;85.90;;;;;;6214145;23;20395;-79
2023/02/13 10:36:20;;;;;;;7.90;4.40;;;10.10;85.90;;;;;;6214696;23;20404;-79
2023/02/13 10:39:14;;;;;;;7.80;4.93;;;10.10;85.90;;;;;;6217245;23;19996;-79
2023/02/13 10:41:53;;;;;;;7.53;4.60;;;10.10;85.80;;;;;;6187686;23;20383;-78
2023/02/13 10:44:47;;;;;;;8.05;4.93;;;10.10;85.70;;;;;;6215311;23;20005;-79
2023/02/13 10:47:39;;;;;;;7.43;4.50;;;10.10;85.70;;;;;;6217457;23;20012;-79
2023/02/13 10:50:14;;;;;;;7.78;4.50;;;10.10;85.70;;;;;;6215178;23;20062;-78
2023/02/13 10:52:58;;;;;;;7.40;4.38;;;10.10;85.70;;;;;;6214722;23;20000;-79
2023/02/13 10:55:35;;;;;;;8.13;4.43;;;10.10;85.70;;;;;;6213313;23;20395;-78
2023/02/13 10:58:18;;;;;;;8.07;4.78;;;10.10;85.70;;;;;;6213313;23;20004;-78
2023/02/13 11:01:01;;;;;;;7.60;4.38;;;10.10;85.60;;;;;;6213019;23;20442;-78
2023/02/13 11:03:28;;;;;;;8.05;4.50;;;10.10;85.60;;;;;;6214230;23;20055;-78
2023/02/13 11:05:56;;;;;;;8.20;4.85;;;10.10;85.60;;;;;;6214742;23;20024;-78
2023/02/13 11:08:37;;;;;;;7.85;4.72;;;10.10;85.60;;;;;;6213298;23;20382;-78
2023/02/13 11:11:03;;;;;;;7.30;4.53;;;10.10;85.60;;;;;;6216896;23;20019;-79
2023/02/13 11:13:29;;;;;;;7.75;4.35;;;10.10;85.60;;;;;;6214793;23;20008;-79
2023/02/13 11:16:06;;;;;;;7.65;4.45;;;10.10;85.70;;;;;;6215137;23;20011;-77
2023/02/13 11:18:36;;;;;;;7.75;4.65;;;10.10;85.70;;;;;;6212781;23;20015;-79
2023/02/13 11:21:17;;;;;;;7.95;4.72;;;10.10;85.70;;;;;;6212539;23;20001;-78
2023/02/13 11:23:45;;;;;;;7.75;4.25;;;10.10;85.70;;;;;;6212725;23;20036;-79
2023/02/13 11:26:26;;;;;;;7.03;4.22;;;10.10;85.70;;;;;;6211991;23;20447;-77
2023/02/13 11:28:59;;;;;;;7.20;4.28;;;10.10;85.70;;;;;;6212844;23;20027;-78
2023/02/13 11:31:28;;;;;;;7.70;4.40;;;10.10;85.70;;;;;;6212380;23;20011;-78
2023/02/13 11:33:55;;;;;;;7.60;4.40;;;10.10;85.70;;;;;;6212792;23;20012;-79
2023/02/13 11:36:34;;;;;;;7.55;4.70;;;10.10;85.70;;;;;;6212398;23;20008;-78
2023/02/13 11:39:04;;;;;;;7.55;4.25;;;10.10;85.70;;;;;;6212251;23;20062;-78
2023/02/13 11:41:36;;;;;;;7.10;4.22;;;10.20;85.80;;;;;;6213780;23;20066;-79
2023/02/13 11:44:03;;;;;;;7.38;4.53;;;10.10;85.70;;;;;;6218538;23;20000;-79
2023/02/13 11:46:50;;;;;;;6.70;3.90;;;10.00;85.60;;;;;;6216834;23;20060;-79
2023/02/13 11:49:20;;;;;;;6.82;4.13;;;10.10;85.70;;;;;;6218967;23;20368;-79
2023/02/13 11:51:48;;;;;;;7.20;4.22;;;10.10;85.70;;;;;;6216907;23;20505;-79
2023/02/13 11:54:29;;;;;;;7.53;4.60;;;10.10;85.70;;;;;;6216087;23;20004;-79
2023/02/13 11:57:02;;;;;;;7.23;4.00;;;10.10;85.70;;;;;;6216781;23;20435;-79
2023/02/13 11:59:32;;;;;;;7.00;3.92;;;10.10;85.70;;;;;;6218352;23;20258;-78
2023/02/13 12:02:11;;;;;;;6.88;4.10;;;10.10;85.70;;;;;;6217192;23;20008;-79
2023/02/13 12:04:37;;;;;;;6.70;4.05;;;10.10;85.60;;;;;;6215482;23;20393;-79
2023/02/13 12:07:13;;;;;;;6.95;4.15;;;10.10;85.60;;;;;;6214540;23;20031;-78
2023/02/13 12:09:40;;;;;;;6.88;4.10;;;10.20;85.60;;;;;;6214946;23;20390;-79
2023/02/13 12:12:10;;;;;;;7.20;4.32;;;10.10;85.50;;;;;;6215236;23;20009;-79
2023/02/13 12:14:42;;;;;;;7.00;4.15;;;10.10;85.50;;;;;;6216763;23;20012;-79
2023/02/13 12:17:14;;;;;;;7.25;4.07;;;10.20;85.60;;;;;;6215603;23;20005;-79
2023/02/13 12:19:46;;;;;;;7.03;4.20;;;10.10;85.40;;;;;;6216526;23;20009;-79
2023/02/13 12:22:26;;;;;;;6.32;3.80;;;10.20;85.40;;;;;;6214796;23;20005;-78
2023/02/13 12:24:55;;;;;;;6.45;3.85;;;10.20;85.30;;;;;;6214410;23;20024;-78
2023/02/13 12:28:01;;;;;;;6.80;3.97;;;10.30;85.20;;;;;;6214000;23;20486;-79
2023/02/13 12:30:44;;;;;;;6.57;3.78;;;10.30;84.90;;;;;;6214112;23;20061;-79
2023/02/13 12:33:49;;;;;;;6.28;3.55;;;10.40;84.60;;;;;;6217286;23;20009;-79
2023/02/13 12:36:43;;;;;;;6.60;3.95;;;10.50;84.30;;;;;;6218015;23;20061;-79
2023/02/13 12:39:33;;;;;;;6.30;3.58;;;10.50;84.10;;;;;;6216739;23;20004;-79
2023/02/13 12:42:26;;;;;;;6.93;4.03;;;10.60;83.90;;;;;;6242235;23;20012;-79
2023/02/13 12:45:00;;;;;;;6.50;3.88;;;10.60;83.80;;;;;;6222019;23;20004;-79
2023/02/13 12:47:29;;;;;;;6.82;4.22;;;10.60;83.70;;;;;;6223405;23;20000;-79
2023/02/13 12:50:05;;;;;;;6.22;3.58;;;10.60;83.70;;;;;;6249898;23;20354;-79
2023/02/13 12:52:53;;;;;;;6.38;3.70;;;10.60;83.60;;;;;;6220687;23;20010;-79
2023/02/13 12:55:18;;;;;;;6.75;3.60;;;10.60;83.50;;;;;;6219891;23;20008;-79
2023/02/13 12:57:47;;;;;;;6.32;3.55;;;10.70;83.50;;;;;;6247348;23;20023;-79
2023/02/13 13:00:24;;;;;;;6.07;3.55;;;10.70;83.40;;;;;;6247244;23;20012;-79
2023/02/13 13:03:17;;;;;;;7.00;3.90;;;10.80;83.40;;;;;;6247274;23;20053;-78
2023/02/13 13:06:05;;;;;;;6.03;3.58;;;10.80;83.30;;;;;;6218628;23;20346;-79
2023/02/13 13:08:56;;;;;;;6.57;3.58;;;10.80;83.20;;;;;;6219769;23;20331;-79
2023/02/13 13:11:33;;;;;;;6.47;3.85;;;10.80;83.20;;;;;;6249173;23;20079;-78
2023/02/13 13:14:31;;;;;;;6.57;3.60;;;10.80;83.20;;;;;;6222471;23;20008;-79
2023/02/13 13:17:12;;;;;;;6.93;3.40;;;10.80;83.10;;;;;;6250129;23;20015;-79
2023/02/13 13:20:16;;;;;;;6.65;3.60;;;10.90;83.10;;;;;;6221036;23;20035;-79
2023/02/13 13:22:52;;;;;;;5.95;3.50;;;10.80;83.00;;;;;;6248100;23;20008;-79
2023/02/13 13:25:49;;;;;;;6.20;3.70;;;10.80;83.00;;;;;;6220457;23;20074;-79
2023/02/13 13:28:28;;;;;;;6.60;3.70;;;10.80;83.10;;;;;;6247446;23;20054;-79
2023/02/13 13:30:56;;;;;;;5.85;3.40;;;10.80;83.10;;;;;;6247794;23;20066;-79
2023/02/13 13:33:24;;;;;;;6.05;3.35;;;10.80;83.20;;;;;;6252217;23;20522;-80
2023/02/13 13:36:03;;;;;;;6.18;3.38;;;10.80;83.20;;;;;;6247560;23;20504;-79
2023/02/13 13:38:52;;;;;;;6.43;3.50;;;10.80;83.10;;;;;;6219558;23;20004;-79
2023/02/13 13:41:45;;;;;;;6.40;3.53;;;10.80;83.00;;;;;;6214864;23;20099;-79
2023/02/13 13:44:32;;;;;;;6.10;3.40;;;10.80;83.00;;;;;;6214873;23;20039;-79
2023/02/13 13:47:02;;;;;;;5.70;3.15;;;10.80;83.00;;;;;;6214418;23;20001;-78
2023/02/13 13:49:47;;;;;;;6.10;3.58;;;10.90;83.10;;;;;;6216252;23;20008;-79
2023/02/13 13:52:26;;;;;;;6.20;3.20;;;10.80;83.00;;;;;;6216400;23;20321;-79
2023/02/13 13:54:53;;;;;;;5.90;3.30;;;10.90;83.00;;;;;;6213931;23;20024;-77
2023/02/13 13:57:19;;;;;;;6.47;3.72;;;10.80;82.90;;;;;;6213697;23;20008;-79